EVERETT DAM ON PISCATAOUOG R: From 11/03/2018 15:00 to 11/17/2018 20:00

Date LAKE ELEVATION [FT] PRECIPITATION INCREMENT [IN] RESERVOIR RELEASES [CFS] TAILWATER STAGE [FT]
11/17/2018 11:00 -- 0.00 -- --
11/17/2018 10:00 342.26 0.00 -- 6.36
11/17/2018 09:00 342.26 0.00 -- 6.36
11/17/2018 08:00 342.26 0.00 -- 6.37
11/17/2018 07:00 342.29 0.00 332.6 6.36
11/17/2018 06:00 342.29 0.00 336.3 6.37
11/17/2018 05:00 342.29 0.00 340.0 6.38
11/17/2018 04:00 342.29 0.00 343.7 6.39
11/17/2018 03:00 342.29 0.00 343.7 6.39
11/17/2018 02:00 342.32 0.00 343.7 6.39
11/17/2018 01:00 342.32 0.00 343.7 6.39
11/17/2018 00:00 342.32 0.00 347.4 6.40
11/16/2018 23:00 342.32 0.00 347.4 6.40
11/16/2018 22:00 342.32 0.00 347.4 6.40
11/16/2018 21:00 342.32 0.00 351.1 6.41
11/16/2018 20:00 342.32 0.00 351.1 6.41
11/16/2018 19:00 342.32 0.00 347.4 6.40
11/16/2018 18:00 342.32 0.00 347.4 6.40
11/16/2018 17:00 342.32 0.00 351.1 6.41
11/16/2018 16:00 342.32 0.00 343.7 6.39
11/16/2018 15:00 342.29 0.00 343.7 6.39
11/16/2018 14:00 342.29 0.00 340.0 6.38
11/16/2018 13:00 342.29 0.00 336.3 6.37
11/16/2018 12:00 342.26 0.00 332.6 6.36
11/16/2018 11:00 342.26 0.00 329.0 6.35
11/16/2018 10:00 342.20 0.00 385.6 6.50
11/16/2018 09:00 342.26 0.00 393.4 6.52
11/16/2018 08:00 342.26 0.00 393.4 6.52
11/16/2018 07:00 342.26 0.00 397.4 6.53
11/16/2018 06:00 342.29 0.00 401.4 6.54
11/16/2018 05:00 342.29 0.01 405.4 6.55
11/16/2018 04:00 342.29 0.01 405.4 6.55
11/16/2018 03:00 342.32 0.01 409.4 6.56
11/16/2018 02:00 342.32 0.01 413.4 6.57
11/16/2018 01:00 342.32 0.01 417.5 6.58
11/16/2018 00:00 342.32 0.02 421.6 6.59
11/15/2018 23:00 342.38 0.03 425.7 6.60
11/15/2018 22:00 342.38 0.02 433.9 6.62
11/15/2018 21:00 342.41 0.04 438.1 6.63
11/15/2018 20:00 342.41 0.02 454.9 6.67
11/15/2018 19:00 342.44 0.01 450.6 6.66
11/15/2018 18:00 342.47 0.00 467.7 6.70
11/15/2018 17:00 342.53 0.00 485.0 6.74
11/15/2018 16:00 342.56 0.00 493.8 6.76
11/15/2018 15:00 342.62 0.00 493.8 6.76
11/15/2018 14:00 342.68 0.00 -- --
11/15/2018 13:00 342.74 0.00 -- --
11/15/2018 12:00 342.80 0.00 -- --
11/15/2018 11:00 342.86 0.00 -- --
11/15/2018 10:00 342.89 0.00 -- --
11/15/2018 09:00 342.95 0.00 609.5 7.01
11/15/2018 08:00 343.04 0.00 609.5 7.01
11/15/2018 07:00 343.16 0.00 618.2 7.03
11/15/2018 06:00 343.22 0.00 618.2 7.03
11/15/2018 05:00 343.34 0.00 618.2 7.03
11/15/2018 04:00 343.40 0.00 622.6 7.04
11/15/2018 03:00 343.49 0.00 622.6 7.04
11/15/2018 02:00 343.55 0.00 627.0 7.05
11/15/2018 01:00 343.67 0.00 627.0 7.05
11/15/2018 00:00 343.76 0.00 631.4 7.06
11/14/2018 23:00 343.82 0.00 631.4 7.06
11/14/2018 22:00 343.91 0.00 635.8 7.07
11/14/2018 21:00 343.97 0.00 640.3 7.08
11/14/2018 20:00 344.06 0.00 631.4 7.06
11/14/2018 19:00 344.12 0.00 640.3 7.08
11/14/2018 18:00 344.18 0.00 644.7 7.09
11/14/2018 17:00 344.24 0.00 640.3 7.08
11/14/2018 16:00 344.30 0.00 644.7 7.09
11/14/2018 15:00 344.36 0.00 644.7 7.09
11/14/2018 14:00 344.42 0.00 649.2 7.10
11/14/2018 13:00 344.45 0.00 649.2 7.10
11/14/2018 12:00 344.51 0.00 649.2 7.10
11/14/2018 11:00 344.57 0.00 644.7 7.09
11/14/2018 10:00 344.57 0.00 489.4 6.75
11/14/2018 09:00 344.54 0.00 489.4 6.75
11/14/2018 08:00 344.51 0.00 485.0 6.74
11/14/2018 07:00 344.51 0.00 485.0 6.74
11/14/2018 06:00 344.45 0.00 485.0 6.74
11/14/2018 05:00 344.39 0.00 489.4 6.75
11/14/2018 04:00 344.36 0.00 485.0 6.74
11/14/2018 03:00 344.30 0.00 485.0 6.74
11/14/2018 02:00 344.27 0.00 485.0 6.74
11/14/2018 01:00 344.18 0.00 480.6 6.73
11/14/2018 00:00 344.12 0.00 476.3 6.72
11/13/2018 23:00 344.06 0.00 476.3 6.72
11/13/2018 22:00 343.97 0.00 480.6 6.73
11/13/2018 21:00 343.91 0.00 476.3 6.72
11/13/2018 20:00 343.82 0.00 472.0 6.71
11/13/2018 19:00 343.70 0.00 472.0 6.71
11/13/2018 18:00 343.61 0.00 467.7 6.70
11/13/2018 17:00 343.49 0.00 463.4 6.69
11/13/2018 16:00 343.37 0.00 463.4 6.69
11/13/2018 15:00 343.22 0.00 463.4 6.69
11/13/2018 14:00 343.07 0.00 459.1 6.68
11/13/2018 13:00 342.95 0.00 450.6 6.66
11/13/2018 12:00 342.80 0.00 442.2 6.64
11/13/2018 11:00 342.65 0.00 425.7 6.60
11/13/2018 10:00 342.47 0.00 409.4 6.56
11/13/2018 09:00 342.38 0.00 450.6 6.66
11/13/2018 08:00 342.26 0.03 421.6 6.59
11/13/2018 07:00 342.17 0.07 401.4 6.54
11/13/2018 06:00 342.11 0.08 385.6 6.50
11/13/2018 05:00 342.05 0.11 370.1 6.46
11/13/2018 04:00 342.02 0.10 362.4 6.44
11/13/2018 03:00 342.02 0.09 358.6 6.43
11/13/2018 02:00 341.99 0.08 354.9 6.42
11/13/2018 01:00 341.99 0.08 354.9 6.42
11/13/2018 00:00 341.99 0.09 354.9 6.42
11/12/2018 23:00 341.99 0.06 354.9 6.42
11/12/2018 22:00 342.02 0.00 358.6 6.43
11/12/2018 21:00 342.02 0.00 362.4 6.44
11/12/2018 20:00 342.05 0.00 362.4 6.44
11/12/2018 19:00 342.05 0.00 370.1 6.46
11/12/2018 18:00 342.05 0.00 373.9 6.47
11/12/2018 17:00 342.05 0.00 377.8 6.48
11/12/2018 16:00 342.11 0.00 381.7 6.49
11/12/2018 15:00 342.14 0.00 385.6 6.50
11/12/2018 14:00 342.14 0.00 397.4 6.53
11/12/2018 13:00 342.17 0.00 401.4 6.54
11/12/2018 12:00 342.17 0.00 405.4 6.55
11/12/2018 11:00 342.20 0.00 413.4 6.57
11/12/2018 10:00 342.26 0.00 413.4 6.57
11/12/2018 09:00 342.29 0.00 429.8 6.61
11/12/2018 08:00 342.32 0.00 438.1 6.63
11/12/2018 07:00 342.32 0.00 446.4 6.65
11/12/2018 06:00 342.41 0.00 463.4 6.69
11/12/2018 05:00 342.44 0.00 476.3 6.72
11/12/2018 04:00 342.47 0.00 502.6 6.78
11/12/2018 03:00 342.56 0.00 516.1 6.81
11/12/2018 02:00 342.62 0.00 529.7 6.84
11/12/2018 01:00 342.68 0.00 534.2 6.85
11/12/2018 00:00 342.77 0.00 538.8 6.86
11/11/2018 23:00 342.80 0.00 543.4 6.87
11/11/2018 22:00 342.92 0.00 548.1 6.88
11/11/2018 21:00 342.95 0.00 548.1 6.88
11/11/2018 20:00 343.04 0.00 557.4 6.90
11/11/2018 19:00 343.07 0.00 552.7 6.89
11/11/2018 18:00 343.16 0.00 557.4 6.90
11/11/2018 17:00 343.22 0.00 557.4 6.90
11/11/2018 16:00 343.28 0.00 557.4 6.90
11/11/2018 15:00 343.34 0.00 562.1 6.91
11/11/2018 14:00 343.40 0.00 562.1 6.91
11/11/2018 13:00 343.43 0.00 562.1 6.91
11/11/2018 12:00 343.49 0.00 566.8 6.92
11/11/2018 11:00 343.55 0.00 566.8 6.92
11/11/2018 10:00 343.55 0.00 566.8 6.92
11/11/2018 09:00 343.64 0.00 566.8 6.92
11/11/2018 08:00 343.67 0.00 566.8 6.92
11/11/2018 07:00 343.70 0.00 658.2 7.12
11/11/2018 06:00 343.82 0.00 662.7 7.13
11/11/2018 05:00 343.91 0.00 671.8 7.15
11/11/2018 04:00 343.97 0.00 671.8 7.15
11/11/2018 03:00 344.06 0.00 671.8 7.15
11/11/2018 02:00 344.12 0.00 671.8 7.15
11/11/2018 01:00 344.18 0.00 676.4 7.16
11/11/2018 00:00 344.24 0.00 676.4 7.16
11/10/2018 23:00 344.30 0.00 685.5 7.18
11/10/2018 22:00 344.39 0.00 685.5 7.18
11/10/2018 21:00 344.42 0.00 681.0 7.17
11/10/2018 20:00 344.51 0.00 685.5 7.18
11/10/2018 19:00 344.54 0.00 690.2 7.19
11/10/2018 18:00 344.57 0.00 685.5 7.18
11/10/2018 17:00 344.66 0.00 685.5 7.18
11/10/2018 16:00 344.72 0.00 690.2 7.19
11/10/2018 15:00 344.78 0.00 -- --
11/10/2018 14:00 344.81 0.00 690.2 7.19
11/10/2018 13:00 344.84 0.00 690.2 7.19
11/10/2018 12:00 344.87 0.00 681.0 7.17
11/10/2018 11:00 344.87 0.00 562.1 6.91
11/10/2018 10:00 344.84 0.00 562.1 6.91
11/10/2018 09:00 344.78 0.00 562.1 6.91
11/10/2018 08:00 344.78 0.00 566.8 6.92
11/10/2018 07:00 344.72 0.00 566.8 6.92
11/10/2018 06:00 344.69 0.00 562.1 6.91
11/10/2018 05:00 344.66 0.01 557.4 6.90
11/10/2018 04:00 344.63 0.00 562.1 6.91
11/10/2018 03:00 344.57 0.00 557.4 6.90
11/10/2018 02:00 344.54 0.00 557.4 6.90
11/10/2018 01:00 344.54 0.01 557.4 6.90
11/10/2018 00:00 344.51 0.02 552.7 6.89
11/09/2018 23:00 344.51 0.02 552.7 6.89
11/09/2018 22:00 344.54 0.04 552.7 6.89
11/09/2018 21:00 344.54 0.06 552.7 6.89
11/09/2018 20:00 344.57 0.12 557.4 6.90
11/09/2018 19:00 344.63 0.09 562.1 6.91
11/09/2018 18:00 344.69 0.14 557.4 6.90
11/09/2018 17:00 344.72 0.12 562.1 6.91
11/09/2018 16:00 344.81 0.08 562.1 6.91
11/09/2018 15:00 344.90 0.06 562.1 6.91
11/09/2018 14:00 344.93 0.00 562.1 6.91
11/09/2018 13:00 345.05 0.00 566.8 6.92
11/09/2018 12:00 345.11 0.00 571.5 6.93
11/09/2018 11:00 345.17 0.00 571.5 6.93
11/09/2018 10:00 345.26 0.00 571.5 6.93
11/09/2018 09:00 345.41 0.00 982.9 7.77
11/09/2018 08:00 345.65 0.00 961.1 7.73
11/09/2018 07:00 345.86 0.00 1004.9 7.81
11/09/2018 06:00 346.07 0.00 1021.6 7.84
11/09/2018 05:00 346.31 0.00 1032.8 7.86
11/09/2018 04:00 346.55 0.00 999.4 7.80
11/09/2018 03:00 346.76 0.00 1032.8 7.86
11/09/2018 02:00 347.00 0.00 1027.2 7.85
11/09/2018 01:00 347.21 0.00 1038.4 7.87
11/09/2018 00:00 347.42 0.00 1038.4 7.87
11/08/2018 23:00 347.66 0.00 1044.0 7.88
11/08/2018 22:00 347.87 0.00 1072.4 7.93
11/08/2018 21:00 348.08 0.00 1101.1 7.98
11/08/2018 20:00 348.29 0.00 1061.0 7.91
11/08/2018 19:00 348.50 0.00 1078.1 7.94
11/08/2018 18:00 348.74 0.00 1072.4 7.93
11/08/2018 17:00 348.95 0.00 1078.1 7.94
11/08/2018 16:00 349.16 0.00 1083.8 7.95
11/08/2018 15:00 349.49 0.00 -- --
11/08/2018 14:00 349.58 0.00 1106.9 7.99
11/08/2018 13:00 349.79 0.00 1157.3 8.07
11/08/2018 12:00 350.00 0.00 1170.2 8.09
11/08/2018 11:00 350.21 0.00 1183.2 8.11
11/08/2018 10:00 350.42 0.00 1144.5 8.05
11/08/2018 09:00 350.63 0.00 1183.2 8.11
11/08/2018 08:00 350.84 0.00 1170.2 8.09
11/08/2018 07:00 351.05 0.00 1061.0 7.91
11/08/2018 06:00 351.20 0.00 1066.7 7.92
11/08/2018 05:00 351.35 0.00 950.3 7.71
11/08/2018 04:00 351.50 0.00 961.1 7.73
11/08/2018 03:00 351.62 0.00 966.6 7.74
11/08/2018 02:00 351.77 0.00 966.6 7.74
11/08/2018 01:00 351.92 0.00 961.1 7.73
11/08/2018 00:00 352.04 0.00 972.0 7.75
11/07/2018 23:00 352.16 0.00 972.0 7.75
11/07/2018 22:00 352.31 0.00 982.9 7.77
11/07/2018 21:00 352.43 0.00 982.9 7.77
11/07/2018 20:00 352.58 0.00 988.4 7.78
11/07/2018 19:00 352.70 0.00 982.9 7.77
11/07/2018 18:00 352.82 0.00 988.4 7.78
11/07/2018 17:00 352.94 0.00 988.4 7.78
11/07/2018 16:00 353.06 0.00 993.9 7.79
11/07/2018 15:00 353.18 0.00 988.4 7.78
11/07/2018 14:00 353.30 0.00 988.4 7.78
11/07/2018 13:00 353.42 0.00 993.9 7.79
11/07/2018 12:00 353.51 0.00 835.4 7.49
11/07/2018 11:00 353.60 0.00 830.3 7.48
11/07/2018 10:00 353.63 0.00 635.8 7.07
11/07/2018 09:00 353.66 0.00 507.1 6.79
11/07/2018 08:00 353.63 0.00 485.0 6.74
11/07/2018 07:00 353.60 0.00 480.6 6.73
11/07/2018 06:00 353.54 0.00 480.6 6.73
11/07/2018 05:00 353.51 0.00 480.6 6.73
11/07/2018 04:00 353.48 0.00 480.6 6.73
11/07/2018 03:00 353.45 0.00 485.0 6.74
11/07/2018 02:00 353.39 0.00 480.6 6.73
11/07/2018 01:00 353.36 0.00 476.3 6.72
11/07/2018 00:00 353.30 0.00 476.3 6.72
11/06/2018 23:00 353.24 0.00 480.6 6.73
11/06/2018 22:00 353.18 0.00 480.6 6.73
11/06/2018 21:00 353.12 0.00 476.3 6.72
11/06/2018 20:00 353.09 0.00 476.3 6.72
11/06/2018 19:00 353.00 0.00 476.3 6.72
11/06/2018 18:00 352.94 0.00 472.0 6.71
11/06/2018 17:00 352.88 0.01 472.0 6.71
11/06/2018 16:00 352.82 0.01 472.0 6.71
11/06/2018 15:00 352.76 0.03 476.3 6.72
11/06/2018 14:00 352.73 0.04 472.0 6.71
11/06/2018 13:00 352.67 0.00 472.0 6.71
11/06/2018 12:00 352.64 0.03 472.0 6.71
11/06/2018 11:00 352.61 0.12 472.0 6.71
11/06/2018 10:00 352.58 0.08 685.5 7.18
11/06/2018 09:00 352.61 0.09 713.4 7.24
11/06/2018 08:00 352.70 0.00 708.8 7.23
11/06/2018 07:00 352.76 0.01 718.1 7.25
11/06/2018 06:00 352.82 0.00 718.1 7.25
11/06/2018 05:00 352.88 0.00 722.9 7.26
11/06/2018 04:00 352.94 0.00 718.1 7.25
11/06/2018 03:00 353.00 0.00 722.9 7.26
11/06/2018 02:00 353.09 0.00 722.9 7.26
11/06/2018 01:00 353.15 0.00 718.1 7.25
11/06/2018 00:00 353.21 0.00 718.1 7.25
11/05/2018 23:00 353.27 0.01 722.9 7.26
11/05/2018 22:00 353.33 0.00 722.9 7.26
11/05/2018 21:00 353.42 0.01 727.6 7.27
11/05/2018 20:00 353.48 0.00 722.9 7.26
11/05/2018 19:00 353.54 0.03 727.6 7.27
11/05/2018 18:00 353.60 0.05 727.6 7.27
11/05/2018 17:00 353.66 0.07 727.6 7.27
11/05/2018 16:00 353.78 0.01 -- --
11/05/2018 15:00 353.81 0.01 727.6 7.27
11/05/2018 14:00 353.87 0.00 727.6 7.27
11/05/2018 13:00 353.96 0.00 732.3 7.28
11/05/2018 12:00 354.02 0.00 732.3 7.28
11/05/2018 11:00 354.08 0.00 737.1 7.29
11/05/2018 10:00 354.17 0.00 732.3 7.28
11/05/2018 09:00 354.20 0.00 566.8 6.92
11/05/2018 08:00 354.20 -- 566.8 6.92
11/05/2018 07:00 354.20 0.00 -- --
11/05/2018 06:00 354.23 0.00 -- --
11/05/2018 05:00 354.26 0.00 -- --
11/05/2018 04:00 354.26 0.00 566.8 6.92
11/05/2018 03:00 354.26 0.00 571.5 6.93
11/05/2018 02:00 354.29 0.00 562.1 6.91
11/05/2018 01:00 354.29 0.00 571.5 6.93
11/05/2018 00:00 354.29 0.00 566.8 6.92
11/04/2018 23:00 354.29 0.00 576.2 6.94
11/04/2018 22:00 354.29 0.00 571.5 6.93
11/04/2018 21:00 354.26 0.00 571.5 6.93
11/04/2018 20:00 354.26 0.00 571.5 6.93
11/04/2018 19:00 354.26 0.00 566.8 6.92
11/04/2018 18:00 354.23 0.00 566.8 6.92
11/04/2018 17:00 354.20 0.00 566.8 6.92
11/04/2018 16:00 354.20 0.00 562.1 6.91
11/04/2018 15:00 354.17 0.00 566.8 6.92
11/04/2018 14:00 354.14 0.00 562.1 6.91
11/04/2018 13:00 354.11 0.00 562.1 6.91
11/04/2018 12:00 354.08 0.00 562.1 6.91
11/04/2018 11:00 354.05 0.00 566.8 6.92
11/04/2018 10:00 353.99 0.00 566.8 6.92
11/04/2018 09:00 353.93 0.00 385.6 6.50
11/04/2018 08:00 353.84 0.00 385.6 6.50
11/04/2018 07:00 353.72 0.00 225.9 6.04
11/04/2018 06:00 353.54 0.00 65.3 5.35
11/04/2018 05:00 353.36 0.00 65.3 5.35
11/04/2018 04:00 353.15 0.00 65.3 5.35
11/04/2018 03:00 352.94 0.00 65.3 5.35
11/04/2018 02:00 352.73 0.00 65.3 5.35
11/04/2018 01:00 352.52 0.00 65.3 5.35
11/04/2018 00:00 352.28 0.00 63.9 5.34
11/03/2018 23:00 352.07 0.00 63.9 5.34
11/03/2018 22:00 351.83 0.00 63.9 5.34
11/03/2018 21:00 351.59 0.00 63.9 5.34
11/03/2018 20:00 351.08 0.00 63.9 5.34
11/03/2018 19:00 350.81 0.00 62.5 5.33
11/03/2018 18:00 350.54 0.00 62.5 5.33
11/03/2018 17:00 350.24 0.00 61.1 5.32
11/03/2018 16:00 349.94 0.00 62.5 5.33
11/03/2018 15:00 -- -- -- --